Aberdeen Gardens, Washington
Current Conditions -  °F | °C
As of 12:53 PM on Monday 22 Dec 2014 (Local Time) from KHQM Reporting Station
Haze Haze  
Wind Chill: 49°   Ceiling: Unl
Heat Index: 49°   Visibility: 5mi
Dew Point: 45°   Wind: 3mph
Humidity: 86%   Direction: 260°W
Pressure: 30.37"   Gusts: NA
Location:  47.1445°N, 123.771°W
Report Text: KHQM 222053Z AUTO 26003KT 5SM BR FEW120 09/07 A3037 RMK AO2 SLP288 T00940072 53002
Loading
Personal Weather Stations






























Interactive Weather Map New forecast layout! Learn more

10-Day Weather Forecast

Advertisements
Track Severe Weather on mobile